Time;durP1;ratioP1;P1;durP2;ratioP2;P2;SDS_P1;SDS_P2;PMS_P1;PMS_P2;Temp;Humidity;BMP_temperature;BMP_pressure;BME280_temperature;BME280_humidity;BME280_pressure;Samples;Min_cycle;Max_cycle;Signal;HPM_P1;HPM_P2
2022/06/09 00:01:05;;;;;;;1.47;1.37;;;;;;;;;;5073553;28;20697;-83
2022/06/09 00:03:34;;;;;;;8.53;1.97;;;;;;;;;;5073723;28;20630;-83
2022/06/09 00:06:01;;;;;;;1.70;1.60;;;;;;;;;;5073816;28;20248;-83
2022/06/09 00:08:31;;;;;;;1.50;1.40;;;;;;;;;;5074201;28;20232;-83
2022/06/09 00:11:00;;;;;;;1.73;1.43;;;;;;;;;;5073272;28;20639;-83
2022/06/09 00:13:28;;;;;;;1.57;1.47;;;;;;;;;;5072023;28;20271;-82
2022/06/09 00:15:56;;;;;;;1.37;1.37;;;;;;;;;;5072271;28;20701;-83
2022/06/09 00:18:23;;;;;;;1.93;1.40;;;;;;;;;;5073596;28;20201;-83
2022/06/09 00:20:51;;;;;;;1.67;1.57;;;;;;;;;;5033648;28;20234;-83
2022/06/09 00:23:18;;;;;;;2.23;1.60;;;;;;;;;;5034646;28;20768;-83
2022/06/09 00:25:45;;;;;;;1.83;1.60;;;;;;;;;;5054091;28;20245;-83
2022/06/09 00:28:13;;;;;;;1.73;1.63;;;;;;;;;;5055209;28;20201;-83
2022/06/09 00:30:41;;;;;;;1.60;1.50;;;;;;;;;;5056103;28;20233;-82
2022/06/09 00:33:08;;;;;;;1.90;1.80;;;;;;;;;;5055430;28;20206;-83
2022/06/09 00:35:35;;;;;;;2.37;1.70;;;;;;;;;;5055044;28;20245;-82
2022/06/09 00:38:02;;;;;;;2.00;1.90;;;;;;;;;;5055128;28;20290;-82
2022/06/09 00:40:29;;;;;;;2.43;1.60;;;;;;;;;;5067244;28;20237;-82
2022/06/09 00:42:56;;;;;;;1.60;1.50;;;;;;;;;;5074667;28;20201;-83
2022/06/09 00:45:34;;;;;;;1.53;1.43;;;;;;;;;;5039043;28;20226;-83
2022/06/09 00:48:07;;;;;;;1.60;1.50;;;;;;;;;;5073490;28;20688;-83
2022/06/09 00:50:35;;;;;;;1.57;1.50;;;;;;;;;;5073815;28;20239;-82
2022/06/09 00:53:04;;;;;;;2.47;1.90;;;;;;;;;;5078067;28;20568;-82
2022/06/09 00:55:33;;;;;;;1.70;1.60;;;;;;;;;;5081493;28;20233;-82
2022/06/09 00:58:02;;;;;;;1.60;1.50;;;;;;;;;;5068661;28;20209;-83
2022/06/09 01:00:32;;;;;;;1.80;1.70;;;;;;;;;;5051337;28;20305;-83
2022/06/09 01:03:00;;;;;;;1.50;1.40;;;;;;;;;;5057809;28;20210;-83
2022/06/09 01:05:31;;;;;;;1.83;1.67;;;;;;;;;;5069257;28;20290;-83
2022/06/09 01:08:01;;;;;;;2.20;1.50;;;;;;;;;;5053946;28;20226;-83
2022/06/09 01:10:29;;;;;;;1.30;1.30;;;;;;;;;;5053834;28;20237;-83
2022/06/09 01:12:57;;;;;;;1.63;1.53;;;;;;;;;;5053687;28;20561;-83
2022/06/09 01:18:31;;;;;;;1.47;1.37;;;;;;;;;;5056593;28;20665;-82
2022/06/09 01:21:06;;;;;;;1.37;1.30;;;;;;;;;;5053877;28;20229;-83
2022/06/09 01:23:52;;;;;;;1.10;1.10;;;;;;;;;;5054294;28;20259;-83
2022/06/09 01:26:40;;;;;;;1.93;1.23;;;;;;;;;;5055300;28;20229;-82
2022/06/09 01:29:19;;;;;;;1.23;1.23;;;;;;;;;;5050687;28;20210;-83
2022/06/09 01:31:49;;;;;;;1.43;1.33;;;;;;;;;;5057815;28;20217;-83
2022/06/09 01:34:20;;;;;;;1.10;1.10;;;;;;;;;;5055903;28;20230;-83
2022/06/09 01:36:49;;;;;;;1.57;1.47;;;;;;;;;;5052740;28;20206;-83
2022/06/09 01:39:16;;;;;;;5.07;2.13;;;;;;;;;;5060220;28;20245;-82
2022/06/09 01:41:47;;;;;;;1.23;1.23;;;;;;;;;;5071146;28;20338;-82
2022/06/09 01:44:15;;;;;;;1.60;1.50;;;;;;;;;;5072647;28;20792;-83
2022/06/09 01:46:44;;;;;;;1.40;1.30;;;;;;;;;;5064319;28;20280;-83
2022/06/09 01:49:15;;;;;;;3.27;1.60;;;;;;;;;;5052779;28;20210;-82
2022/06/09 01:51:43;;;;;;;1.60;1.50;;;;;;;;;;5053099;28;20240;-82
2022/06/09 01:54:14;;;;;;;4.47;1.40;;;;;;;;;;5065530;28;20863;-83
2022/06/09 01:56:43;;;;;;;1.33;1.23;;;;;;;;;;5052516;28;20383;-82
2022/06/09 01:59:13;;;;;;;2.33;1.70;;;;;;;;;;5052482;28;20237;-83
2022/06/09 02:01:43;;;;;;;1.20;1.20;;;;;;;;;;5051749;28;20279;-83
2022/06/09 02:04:13;;;;;;;1.87;1.53;;;;;;;;;;5037483;28;20230;-83
2022/06/09 02:06:42;;;;;;;1.90;1.43;;;;;;;;;;5071934;28;20229;-83
2022/06/09 02:09:09;;;;;;;2.10;1.30;;;;;;;;;;5071883;28;20251;-83
2022/06/09 02:11:46;;;;;;;1.53;1.37;;;;;;;;;;5071639;28;20225;-82
2022/06/09 02:14:13;;;;;;;3.87;1.37;;;;;;;;;;5064271;28;20717;-82
2022/06/09 02:16:40;;;;;;;1.27;1.23;;;;;;;;;;5053132;28;20222;-82
2022/06/09 02:19:07;;;;;;;2.97;1.13;;;;;;;;;;5072795;28;20205;-83
2022/06/09 02:21:36;;;;;;;1.60;1.50;;;;;;;;;;5054423;28;20236;-82
2022/06/09 02:24:04;;;;;;;1.37;1.27;;;;;;;;;;5064110;28;20225;-83
2022/06/09 02:26:31;;;;;;;2.33;1.37;;;;;;;;;;5071506;28;20314;-82
2022/06/09 02:28:58;;;;;;;1.40;1.30;;;;;;;;;;5061367;28;20198;-82
2022/06/09 02:31:26;;;;;;;3.50;1.37;;;;;;;;;;5054131;28;20234;-81
2022/06/09 02:33:54;;;;;;;1.47;1.37;;;;;;;;;;5086856;22;20230;-78
2022/06/09 02:36:21;;;;;;;2.63;1.30;;;;;;;;;;5018381;28;20226;-78
2022/06/09 02:38:48;;;;;;;2.57;1.40;;;;;;;;;;5022896;28;20207;-78
2022/06/09 02:41:17;;;;;;;1.10;1.10;;;;;;;;;;5011048;28;20249;-78
2022/06/09 02:43:44;;;;;;;1.83;1.63;;;;;;;;;;5011585;28;20552;-78
2022/06/09 02:46:12;;;;;;;1.40;1.30;;;;;;;;;;5011471;28;20653;-78
2022/06/09 02:48:40;;;;;;;4.17;1.30;;;;;;;;;;5010523;28;20207;-79
2022/06/09 02:51:23;;;;;;;1.90;1.17;;;;;;;;;;5010832;28;20322;-78
2022/06/09 02:53:50;;;;;;;2.00;1.57;;;;;;;;;;5011946;28;20930;-78
2022/06/09 02:56:18;;;;;;;1.40;1.30;;;;;;;;;;5011187;28;20231;-78
2022/06/09 02:58:45;;;;;;;4.23;1.57;;;;;;;;;;5010052;28;20211;-78
2022/06/09 03:01:12;;;;;;;1.50;1.40;;;;;;;;;;5010392;28;20235;-78
2022/06/09 03:03:39;;;;;;;1.33;1.20;;;;;;;;;;5011256;28;20226;-78
2022/06/09 03:06:06;;;;;;;1.37;1.27;;;;;;;;;;5011297;28;20250;-78
2022/06/09 03:08:34;;;;;;;3.57;1.60;;;;;;;;;;5011347;28;20219;-78
2022/06/09 03:11:01;;;;;;;2.63;1.43;;;;;;;;;;5011202;28;20318;-78
2022/06/09 03:13:29;;;;;;;1.43;1.33;;;;;;;;;;5011120;28;20204;-78
2022/06/09 03:15:57;;;;;;;2.73;1.30;;;;;;;;;;5010584;28;20309;-78
2022/06/09 03:18:24;;;;;;;1.83;1.30;;;;;;;;;;5011406;28;20253;-77
2022/06/09 03:20:51;;;;;;;1.50;1.47;;;;;;;;;;5010874;28;20238;-78
2022/06/09 03:23:18;;;;;;;1.70;1.10;;;;;;;;;;5011357;28;20593;-78
2022/06/09 03:25:45;;;;;;;2.40;1.60;;;;;;;;;;5010397;28;20314;-78
2022/06/09 03:28:13;;;;;;;5.50;1.40;;;;;;;;;;5009821;28;20227;-78
2022/06/09 03:30:41;;;;;;;1.17;1.17;;;;;;;;;;4998435;28;20236;-78
2022/06/09 03:33:08;;;;;;;2.00;1.20;;;;;;;;;;5014319;28;20578;-78
2022/06/09 03:35:35;;;;;;;1.90;1.37;;;;;;;;;;5003207;28;20644;-78
2022/06/09 03:38:02;;;;;;;4.57;1.77;;;;;;;;;;5013157;28;20199;-78
2022/06/09 03:40:30;;;;;;;1.50;1.40;;;;;;;;;;5014409;28;20685;-78
2022/06/09 03:42:57;;;;;;;1.63;1.30;;;;;;;;;;5015016;28;20562;-78
2022/06/09 03:45:24;;;;;;;1.17;1.10;;;;;;;;;;5020671;28;20237;-78
2022/06/09 03:47:52;;;;;;;1.47;1.37;;;;;;;;;;5034445;28;20250;-78
2022/06/09 03:50:21;;;;;;;3.73;1.53;;;;;;;;;;5014694;28;20665;-78
2022/06/09 03:52:48;;;;;;;1.60;1.33;;;;;;;;;;5014957;28;20235;-78
2022/06/09 03:55:16;;;;;;;1.83;1.70;;;;;;;;;;5014351;28;20368;-78
2022/06/09 03:57:43;;;;;;;1.40;1.30;;;;;;;;;;5014649;28;20203;-78
2022/06/09 04:00:14;;;;;;;1.73;1.47;;;;;;;;;;5014436;28;20227;-78
2022/06/09 04:02:41;;;;;;;1.60;1.40;;;;;;;;;;5012039;28;20203;-79
2022/06/09 04:05:10;;;;;;;1.87;1.50;;;;;;;;;;5024935;28;20295;-78
2022/06/09 04:07:37;;;;;;;1.90;1.30;;;;;;;;;;5014246;28;20223;-77
2022/06/09 04:10:05;;;;;;;2.10;1.50;;;;;;;;;;5014150;28;20235;-77
2022/06/09 04:12:32;;;;;;;1.50;1.40;;;;;;;;;;5014284;28;20721;-78
2022/06/09 04:14:59;;;;;;;1.50;1.40;;;;;;;;;;5012852;28;20660;-78
2022/06/09 04:17:26;;;;;;;3.30;1.63;;;;;;;;;;5014641;28;20211;-78
2022/06/09 04:19:54;;;;;;;1.97;1.83;;;;;;;;;;5014012;28;20235;-78
2022/06/09 04:22:22;;;;;;;1.63;1.50;;;;;;;;;;5014450;28;20208;-78
2022/06/09 04:24:49;;;;;;;2.33;1.97;;;;;;;;;;5013954;28;20688;-78
2022/06/09 04:27:16;;;;;;;1.97;1.77;;;;;;;;;;5014395;28;20761;-77
2022/06/09 04:29:43;;;;;;;1.60;1.43;;;;;;;;;;5016434;28;20235;-77
2022/06/09 04:32:11;;;;;;;1.60;1.50;;;;;;;;;;5014896;28;20233;-78
2022/06/09 04:34:38;;;;;;;1.60;1.50;;;;;;;;;;5013874;28;20235;-77
2022/06/09 04:37:06;;;;;;;2.73;1.47;;;;;;;;;;5014597;28;20204;-76
2022/06/09 04:39:34;;;;;;;3.03;1.57;;;;;;;;;;5013718;28;20218;-76
2022/06/09 04:42:01;;;;;;;3.90;1.60;;;;;;;;;;5012992;28;20634;-77
2022/06/09 04:44:28;;;;;;;1.73;1.57;;;;;;;;;;5013698;28;20254;-76
2022/06/09 04:46:55;;;;;;;4.60;1.90;;;;;;;;;;5013644;28;20668;-76
2022/06/09 04:49:22;;;;;;;1.60;1.50;;;;;;;;;;5008467;28;20211;-76
2022/06/09 04:51:49;;;;;;;1.93;1.60;;;;;;;;;;5012887;28;20346;-77
2022/06/09 04:54:16;;;;;;;1.73;1.40;;;;;;;;;;5012395;28;20231;-77
2022/06/09 04:56:45;;;;;;;1.37;1.30;;;;;;;;;;5013006;28;20215;-76
2022/06/09 04:59:12;;;;;;;1.60;1.30;;;;;;;;;;5013400;28;20211;-77
2022/06/09 05:01:39;;;;;;;2.13;1.30;;;;;;;;;;5012002;28;20245;-77
2022/06/09 05:04:06;;;;;;;1.60;1.40;;;;;;;;;;5012834;28;20203;-76
2022/06/09 05:06:33;;;;;;;2.00;1.40;;;;;;;;;;5012449;28;20234;-78
2022/06/09 05:09:00;;;;;;;1.60;1.50;;;;;;;;;;5012966;28;20242;-78
2022/06/09 05:11:28;;;;;;;1.57;1.47;;;;;;;;;;5012200;28;20227;-78
2022/06/09 05:13:56;;;;;;;1.40;1.30;;;;;;;;;;5012877;28;20191;-78
2022/06/09 05:16:23;;;;;;;1.87;1.37;;;;;;;;;;5012426;28;20239;-78
2022/06/09 05:18:50;;;;;;;1.90;1.47;;;;;;;;;;5012521;28;20664;-77
2022/06/09 05:21:17;;;;;;;1.30;1.30;;;;;;;;;;5012788;28;20242;-77
2022/06/09 05:23:44;;;;;;;2.17;1.50;;;;;;;;;;5012694;28;20212;-78
2022/06/09 05:26:12;;;;;;;1.67;1.30;;;;;;;;;;5012347;28;20242;-77
2022/06/09 05:28:39;;;;;;;1.50;1.40;;;;;;;;;;5012910;28;20293;-78
2022/06/09 05:31:07;;;;;;;1.73;1.53;;;;;;;;;;5012404;28;20243;-77
2022/06/09 05:33:34;;;;;;;2.83;1.30;;;;;;;;;;5012316;28;20203;-78
2022/06/09 05:36:01;;;;;;;1.40;1.40;;;;;;;;;;5011892;28;20266;-78
2022/06/09 05:46:45;;;;;;;2.83;1.37;;;;;;;;;;5012094;28;20643;-78
2022/06/09 05:49:13;;;;;;;1.10;1.07;;;;;;;;;;5012293;28;20273;-78
2022/06/09 05:51:40;;;;;;;1.53;1.30;;;;;;;;;;5017431;28;20243;-78
2022/06/09 05:54:07;;;;;;;2.83;1.33;;;;;;;;;;5014966;28;20208;-78
2022/06/09 05:56:34;;;;;;;1.47;1.20;;;;;;;;;;5012468;28;20270;-78
2022/06/09 05:59:01;;;;;;;1.40;1.30;;;;;;;;;;5012887;28;20576;-78
2022/06/09 06:01:28;;;;;;;1.63;1.53;;;;;;;;;;5012170;28;20235;-80
2022/06/09 06:03:57;;;;;;;0.93;0.93;;;;;;;;;;5011976;28;20567;-78
2022/06/09 06:06:36;;;;;;;2.60;1.47;;;;;;;;;;5011896;28;20235;-79
2022/06/09 06:09:04;;;;;;;5.03;1.40;;;;;;;;;;5012093;28;20242;-79
2022/06/09 06:11:31;;;;;;;1.97;1.27;;;;;;;;;;5012230;28;20235;-79
2022/06/09 06:13:59;;;;;;;1.20;1.10;;;;;;;;;;5011923;28;20223;-77
2022/06/09 06:16:26;;;;;;;1.63;1.30;;;;;;;;;;5011765;28;20235;-76
2022/06/09 06:18:54;;;;;;;1.40;1.00;;;;;;;;;;5012254;28;20207;-78
2022/06/09 06:21:22;;;;;;;2.17;1.00;;;;;;;;;;5011817;28;20231;-77
2022/06/09 06:23:50;;;;;;;2.37;1.47;;;;;;;;;;5011695;28;20563;-77
2022/06/09 06:26:17;;;;;;;2.23;1.17;;;;;;;;;;5011677;28;20246;-76
2022/06/09 06:28:44;;;;;;;2.33;1.60;;;;;;;;;;5011827;28;20611;-76
2022/06/09 06:31:12;;;;;;;4.53;1.60;;;;;;;;;;5012017;28;20238;-77
2022/06/09 06:33:39;;;;;;;3.40;1.27;;;;;;;;;;5008571;28;20200;-77
2022/06/09 06:36:06;;;;;;;3.13;1.20;;;;;;;;;;5009468;28;20231;-77
2022/06/09 06:38:34;;;;;;;2.80;1.17;;;;;;;;;;5012536;28;20203;-77
2022/06/09 06:41:04;;;;;;;1.30;1.17;;;;;;;;;;5013002;28;20266;-77
2022/06/09 06:43:32;;;;;;;1.33;1.00;;;;;;;;;;5019471;28;20207;-78
2022/06/09 06:46:00;;;;;;;0.97;0.97;;;;;;;;;;5011744;28;20966;-77
2022/06/09 06:48:27;;;;;;;2.20;1.07;;;;;;;;;;5012254;28;20579;-78
2022/06/09 06:50:54;;;;;;;4.23;1.10;;;;;;;;;;5011976;28;20334;-78
2022/06/09 06:53:21;;;;;;;2.20;1.20;;;;;;;;;;4993306;28;20219;-78
2022/06/09 06:55:50;;;;;;;1.00;1.00;;;;;;;;;;4991914;28;20243;-78
2022/06/09 06:58:17;;;;;;;0.83;0.80;;;;;;;;;;4991469;28;20207;-78
2022/06/09 07:00:44;;;;;;;1.70;1.20;;;;;;;;;;4990560;28;20247;-78
2022/06/09 07:03:12;;;;;;;1.63;0.90;;;;;;;;;;4991294;28;20199;-78
2022/06/09 07:05:39;;;;;;;1.33;1.00;;;;;;;;;;4991575;28;20239;-78
2022/06/09 07:08:07;;;;;;;1.03;0.90;;;;;;;;;;4995029;28;20723;-78
2022/06/09 07:10:35;;;;;;;1.05;0.95;;;;;;;;;;4994424;28;20236;-78
2022/06/09 07:13:04;;;;;;;1.25;0.93;;;;;;;;;;4994718;28;20215;-78
2022/06/09 07:15:31;;;;;;;3.45;1.40;;;;;;;;;;4993947;28;20236;-78
2022/06/09 07:17:58;;;;;;;3.22;1.13;;;;;;;;;;4994898;28;20674;-78
2022/06/09 07:20:26;;;;;;;1.48;0.68;;;;;;;;;;4994796;28;20239;-78
2022/06/09 07:22:53;;;;;;;3.63;1.15;;;;;;;;;;4994864;28;20234;-77
2022/06/09 07:25:21;;;;;;;1.10;1.08;;;;;;;;;;4993742;28;20253;-78
2022/06/09 07:27:48;;;;;;;1.40;1.10;;;;;;;;;;4997248;28;20208;-78
2022/06/09 07:30:16;;;;;;;3.55;1.10;;;;;;;;;;5013183;28;20282;-78
2022/06/09 07:32:43;;;;;;;2.15;1.23;;;;;;;;;;5010597;28;20208;-77
2022/06/09 07:35:11;;;;;;;1.50;1.30;;;;;;;;;;5015886;28;20237;-78
2022/06/09 07:37:38;;;;;;;1.85;0.80;;;;;;;;;;5012405;28;20710;-77
2022/06/09 07:40:06;;;;;;;1.67;1.00;;;;;;;;;;5012681;28;20609;-79
2022/06/09 07:42:33;;;;;;;1.63;1.25;;;;;;;;;;5012919;28;20235;-78
2022/06/09 07:45:00;;;;;;;0.73;0.73;;;;;;;;;;5015722;28;20238;-79
2022/06/09 07:47:29;;;;;;;3.20;1.23;;;;;;;;;;5014174;28;20211;-77
2022/06/09 07:49:57;;;;;;;3.70;1.33;;;;;;;;;;5012597;28;20246;-77
2022/06/09 07:52:24;;;;;;;1.42;0.90;;;;;;;;;;5013176;28;20212;-78
2022/06/09 07:54:51;;;;;;;1.67;1.00;;;;;;;;;;5012343;28;20293;-78
2022/06/09 07:57:18;;;;;;;4.22;1.63;;;;;;;;;;5013653;28;20675;-77
2022/06/09 07:59:45;;;;;;;1.42;1.10;;;;;;;;;;5013337;28;20234;-78
2022/06/09 08:02:13;;;;;;;2.03;1.00;;;;;;;;;;5013769;28;20281;-78
2022/06/09 08:04:41;;;;;;;1.88;1.48;;;;;;;;;;5012745;28;20235;-78
2022/06/09 08:07:08;;;;;;;5.80;1.40;;;;;;;;;;5010580;28;20228;-79
2022/06/09 08:09:35;;;;;;;2.03;1.13;;;;;;;;;;5012578;28;20235;-78
2022/06/09 08:12:02;;;;;;;1.85;1.38;;;;;;;;;;5012816;28;20211;-79
2022/06/09 08:14:29;;;;;;;0.88;0.88;;;;;;;;;;5012203;28;20227;-78
2022/06/09 08:16:57;;;;;;;1.27;1.17;;;;;;;;;;5013140;28;20202;-79
2022/06/09 08:19:25;;;;;;;1.95;1.30;;;;;;;;;;5013661;28;20211;-79
2022/06/09 08:21:53;;;;;;;1.85;1.05;;;;;;;;;;5012852;28;20301;-78
2022/06/09 08:24:20;;;;;;;1.90;1.55;;;;;;;;;;5011110;28;20243;-80
2022/06/09 08:26:48;;;;;;;5.72;1.40;;;;;;;;;;5015199;28;20207;-79
2022/06/09 08:29:15;;;;;;;2.78;1.05;;;;;;;;;;4998896;28;20230;-81
2022/06/09 08:31:43;;;;;;;1.20;1.20;;;;;;;;;;4993057;28;20218;-78
2022/06/09 08:34:11;;;;;;;1.20;1.10;;;;;;;;;;4993424;28;20270;-80
2022/06/09 08:36:38;;;;;;;1.48;1.20;;;;;;;;;;4993657;28;20677;-79
2022/06/09 08:39:06;;;;;;;2.42;1.10;;;;;;;;;;4994678;28;20216;-79
2022/06/09 08:41:36;;;;;;;3.10;1.45;;;;;;;;;;4994041;28;20238;-79
2022/06/09 08:44:09;;;;;;;1.20;1.10;;;;;;;;;;4993989;28;20223;-78
2022/06/09 08:46:42;;;;;;;4.05;1.52;;;;;;;;;;4993109;28;20232;-79
2022/06/09 08:49:20;;;;;;;1.48;1.33;;;;;;;;;;4993353;28;20224;-79
2022/06/09 08:51:49;;;;;;;1.40;1.00;;;;;;;;;;4993996;28;20228;-79
2022/06/09 08:54:21;;;;;;;3.63;1.55;;;;;;;;;;4993002;28;20278;-80
2022/06/09 08:56:48;;;;;;;1.20;1.00;;;;;;;;;;5054715;22;20316;-82
2022/06/09 08:59:17;;;;;;;1.25;0.98;;;;;;;;;;5054081;28;20621;-79
2022/06/09 09:01:47;;;;;;;3.13;1.35;;;;;;;;;;5053475;28;20213;-79
2022/06/09 09:04:17;;;;;;;3.75;1.60;;;;;;;;;;5053514;28;20250;-80
2022/06/09 09:06:46;;;;;;;1.33;1.10;;;;;;;;;;5054405;28;20222;-79
2022/06/09 09:09:15;;;;;;;1.05;0.95;;;;;;;;;;5053595;28;20252;-85
2022/06/09 09:11:51;;;;;;;2.92;1.30;;;;;;;;;;5053594;28;20225;-77
2022/06/09 09:14:21;;;;;;;1.15;1.05;;;;;;;;;;5053494;28;20202;-77
2022/06/09 09:16:51;;;;;;;2.47;1.38;;;;;;;;;;5054335;28;20233;-78
2022/06/09 09:19:23;;;;;;;2.35;1.63;;;;;;;;;;5073215;28;20201;-77
2022/06/09 09:22:01;;;;;;;3.83;1.63;;;;;;;;;;5074471;28;20189;-78
2022/06/09 09:24:32;;;;;;;2.83;1.40;;;;;;;;;;5073229;28;20656;-78
2022/06/09 09:27:14;;;;;;;1.42;1.33;;;;;;;;;;5072406;28;20233;-77
2022/06/09 09:29:45;;;;;;;1.73;1.20;;;;;;;;;;5072305;28;20282;-77
2022/06/09 09:32:14;;;;;;;1.63;1.52;;;;;;;;;;5073678;28;20472;-76
2022/06/09 09:34:42;;;;;;;2.45;1.65;;;;;;;;;;5072357;28;20229;-77
2022/06/09 09:37:17;;;;;;;1.30;1.17;;;;;;;;;;5073294;28;20304;-77
2022/06/09 09:39:46;;;;;;;6.40;1.70;;;;;;;;;;5072388;28;20251;-81
2022/06/09 09:42:17;;;;;;;1.50;1.30;;;;;;;;;;5070140;28;20268;-87
2022/06/09 09:44:58;;;;;;;1.30;1.20;;;;;;;;;;5055711;28;20713;-84
2022/06/09 09:47:26;;;;;;;1.10;1.05;;;;;;;;;;5052395;28;20271;-84
2022/06/09 09:49:54;;;;;;;2.90;1.33;;;;;;;;;;5052025;28;20284;-83
2022/06/09 09:52:33;;;;;;;4.85;1.40;;;;;;;;;;5052216;28;20646;-84
2022/06/09 09:55:00;;;;;;;1.35;1.25;;;;;;;;;;5051576;28;20280;-83
2022/06/09 09:57:28;;;;;;;1.42;1.35;;;;;;;;;;5053183;28;20287;-85
2022/06/09 09:59:57;;;;;;;1.35;1.25;;;;;;;;;;5053533;28;20295;-83
2022/06/09 10:11:01;;;;;;;1.58;1.23;;;;;;;;;;5039158;28;20284;-81
2022/06/09 10:13:32;;;;;;;1.58;1.25;;;;;;;;;;5048748;28;20216;-81
2022/06/09 10:15:59;;;;;;;1.50;1.08;;;;;;;;;;5054881;28;20832;-79
2022/06/09 10:18:26;;;;;;;1.63;1.17;;;;;;;;;;5055618;28;20198;-79
2022/06/09 10:21:04;;;;;;;2.20;1.30;;;;;;;;;;5057731;28;20234;-81
2022/06/09 10:23:40;;;;;;;3.63;1.20;;;;;;;;;;5059723;28;20194;-86
2022/06/09 10:26:09;;;;;;;1.92;1.55;;;;;;;;;;5058544;28;20244;-79
2022/06/09 10:28:43;;;;;;;1.20;1.10;;;;;;;;;;5063370;28;20212;-85
2022/06/09 10:31:12;;;;;;;1.88;1.27;;;;;;;;;;5064369;28;20237;-82
2022/06/09 10:33:41;;;;;;;1.30;1.17;;;;;;;;;;5062367;28;20209;-80
2022/06/09 10:36:12;;;;;;;2.95;1.42;;;;;;;;;;5059541;28;20230;-80
2022/06/09 10:38:43;;;;;;;3.03;1.20;;;;;;;;;;5058913;28;20187;-80
2022/06/09 10:41:11;;;;;;;1.38;0.80;;;;;;;;;;5061164;28;20242;-80
2022/06/09 10:43:42;;;;;;;1.70;0.90;;;;;;;;;;5062851;28;20649;-80
2022/06/09 10:46:16;;;;;;;0.60;0.60;;;;;;;;;;5060616;28;20242;-79
2022/06/09 10:57:24;;;;;;;0.73;0.73;;;;;;;;;;5061281;28;20240;-83
2022/06/09 10:59:55;;;;;;;1.55;1.00;;;;;;;;;;5061863;28;20704;-79
2022/06/09 11:02:24;;;;;;;1.17;0.85;;;;;;;;;;5060943;28;20186;-82
2022/06/09 11:04:52;;;;;;;0.80;0.80;;;;;;;;;;5059208;28;20230;-82
2022/06/09 11:07:34;;;;;;;0.63;0.63;;;;;;;;;;5061431;28;20228;-82
2022/06/09 11:10:07;;;;;;;0.80;0.80;;;;;;;;;;5058482;28;20624;-79
2022/06/09 11:12:41;;;;;;;1.20;0.80;;;;;;;;;;5059764;28;20190;-78
2022/06/09 11:15:17;;;;;;;1.30;1.05;;;;;;;;;;5057415;28;20611;-78
2022/06/09 11:17:51;;;;;;;2.22;1.02;;;;;;;;;;5057864;28;20557;-78
2022/06/09 11:20:23;;;;;;;2.92;1.15;;;;;;;;;;5058007;28;20228;-78
2022/06/09 11:22:55;;;;;;;1.13;0.95;;;;;;;;;;5058674;28;20281;-80
2022/06/09 11:25:27;;;;;;;2.92;1.05;;;;;;;;;;5065624;28;20244;-78
2022/06/09 11:28:01;;;;;;;1.52;1.10;;;;;;;;;;5077617;28;20244;-78
2022/06/09 11:30:36;;;;;;;0.98;0.85;;;;;;;;;;5077699;28;20240;-80
2022/06/09 11:33:10;;;;;;;1.88;1.10;;;;;;;;;;5077718;28;20204;-77
2022/06/09 11:35:44;;;;;;;2.42;0.90;;;;;;;;;;5062907;28;20241;-83
2022/06/09 11:38:20;;;;;;;1.20;0.85;;;;;;;;;;5057487;28;20682;-78
2022/06/09 11:40:49;;;;;;;1.33;0.85;;;;;;;;;;5058281;28;20234;-77
2022/06/09 11:43:22;;;;;;;2.35;1.33;;;;;;;;;;5058185;28;20704;-81
2022/06/09 11:45:52;;;;;;;0.95;0.85;;;;;;;;;;5056594;28;20307;-77
2022/06/09 11:48:22;;;;;;;1.33;0.90;;;;;;;;;;5041387;28;20238;-78
2022/06/09 11:50:50;;;;;;;1.50;1.05;;;;;;;;;;5038350;28;20234;-77
2022/06/09 11:53:19;;;;;;;0.95;0.80;;;;;;;;;;5038802;28;20559;-83
2022/06/09 11:56:00;;;;;;;3.50;0.90;;;;;;;;;;5039280;28;20245;-78
2022/06/09 11:58:44;;;;;;;1.27;1.17;;;;;;;;;;5039275;28;20581;-81
2022/06/09 12:01:16;;;;;;;1.55;1.02;;;;;;;;;;5038518;28;20651;-78
2022/06/09 12:03:54;;;;;;;1.10;0.90;;;;;;;;;;5057570;28;20202;-81
2022/06/09 12:06:27;;;;;;;1.27;0.88;;;;;;;;;;5059009;28;20248;-80
2022/06/09 12:08:57;;;;;;;2.28;1.20;;;;;;;;;;5058378;28;20643;-80
2022/06/09 12:11:25;;;;;;;0.77;0.77;;;;;;;;;;5059091;28;20230;-80
2022/06/09 12:14:03;;;;;;;2.05;1.10;;;;;;;;;;5057779;28;20217;-79
2022/06/09 12:16:34;;;;;;;1.45;1.15;;;;;;;;;;5056254;28;20233;-80
2022/06/09 12:19:16;;;;;;;1.52;1.00;;;;;;;;;;5060647;28;20652;-81
2022/06/09 12:21:45;;;;;;;1.85;1.27;;;;;;;;;;5061171;28;20253;-82
2022/06/09 12:24:24;;;;;;;1.40;1.00;;;;;;;;;;5060689;28;20237;-84
2022/06/09 12:26:55;;;;;;;6.18;1.50;;;;;;;;;;5057893;28;20245;-81
2022/06/09 12:29:50;;;;;;;0.93;0.85;;;;;;;;;;5059763;28;20681;-80
2022/06/09 12:32:30;;;;;;;1.08;0.80;;;;;;;;;;5058242;28;20218;-81
2022/06/09 12:34:58;;;;;;;0.98;0.47;;;;;;;;;;5057049;28;20230;-83
2022/06/09 12:37:28;;;;;;;0.90;0.80;;;;;;;;;;5057853;28;20226;-80
2022/06/09 12:39:57;;;;;;;0.95;0.90;;;;;;;;;;5059108;28;20251;-81
2022/06/09 12:42:27;;;;;;;1.70;0.90;;;;;;;;;;5057730;28;20206;-80
2022/06/09 12:44:55;;;;;;;0.80;0.80;;;;;;;;;;5057707;28;20541;-82
2022/06/09 12:47:24;;;;;;;3.25;1.20;;;;;;;;;;5056748;28;20226;-80
2022/06/09 12:49:54;;;;;;;0.75;0.75;;;;;;;;;;5057910;28;20241;-80
2022/06/09 12:52:24;;;;;;;0.57;0.50;;;;;;;;;;5058321;28;20634;-79
2022/06/09 12:54:56;;;;;;;1.02;0.73;;;;;;;;;;5055436;28;20280;-79
2022/06/09 12:57:25;;;;;;;2.22;0.90;;;;;;;;;;5056249;28;20265;-78
2022/06/09 13:00:00;;;;;;;3.20;1.00;;;;;;;;;;5055601;28;20275;-82
2022/06/09 13:02:29;;;;;;;2.10;0.80;;;;;;;;;;5057737;28;20209;-82
2022/06/09 13:04:59;;;;;;;1.02;0.85;;;;;;;;;;5054693;28;20230;-81
2022/06/09 13:07:27;;;;;;;1.10;0.70;;;;;;;;;;5056668;28;20236;-80
2022/06/09 13:10:06;;;;;;;1.17;0.80;;;;;;;;;;5056786;28;20238;-81
2022/06/09 13:12:51;;;;;;;1.67;1.15;;;;;;;;;;5057778;28;20205;-82
2022/06/09 13:15:21;;;;;;;0.98;0.93;;;;;;;;;;5056915;28;20233;-79
2022/06/09 13:17:49;;;;;;;1.48;1.00;;;;;;;;;;5059809;28;20190;-80
2022/06/09 13:20:21;;;;;;;0.70;0.65;;;;;;;;;;5060103;28;20639;-84
2022/06/09 13:22:49;;;;;;;2.00;0.95;;;;;;;;;;5061068;28;20255;-80
2022/06/09 13:25:19;;;;;;;4.03;1.15;;;;;;;;;;5040296;28;20245;-81
2022/06/09 13:27:48;;;;;;;0.95;0.88;;;;;;;;;;5037928;28;20210;-81
2022/06/09 13:30:31;;;;;;;0.80;0.80;;;;;;;;;;5045370;28;20229;-80
2022/06/09 13:32:58;;;;;;;2.70;1.20;;;;;;;;;;5056413;28;20214;-81
2022/06/09 13:35:37;;;;;;;1.50;0.90;;;;;;;;;;5055419;28;20237;-79
2022/06/09 13:38:06;;;;;;;1.42;0.80;;;;;;;;;;5055422;28;20190;-79
2022/06/09 13:40:44;;;;;;;2.85;1.02;;;;;;;;;;5055055;28;20222;-80
2022/06/09 13:43:16;;;;;;;1.27;1.00;;;;;;;;;;5054265;28;20198;-81
2022/06/09 13:45:50;;;;;;;1.60;1.05;;;;;;;;;;5052995;28;20237;-80
2022/06/09 13:48:17;;;;;;;1.02;0.68;;;;;;;;;;5055687;28;20193;-79
2022/06/09 13:50:47;;;;;;;1.20;0.57;;;;;;;;;;5053239;28;20245;-80
2022/06/09 13:53:17;;;;;;;0.82;0.73;;;;;;;;;;5055654;28;20626;-80
2022/06/09 13:55:44;;;;;;;0.80;0.80;;;;;;;;;;5057894;28;20237;-84
2022/06/09 13:58:12;;;;;;;0.80;0.77;;;;;;;;;;5061012;28;20209;-80
2022/06/09 14:00:41;;;;;;;1.13;1.02;;;;;;;;;;5065195;28;20248;-83
2022/06/09 14:03:12;;;;;;;1.50;0.93;;;;;;;;;;5063737;28;20202;-83
2022/06/09 14:05:43;;;;;;;1.30;1.20;;;;;;;;;;5060864;28;20244;-82
2022/06/09 14:08:12;;;;;;;3.45;1.10;;;;;;;;;;5063327;28;20213;-82
2022/06/09 14:10:40;;;;;;;2.03;1.25;;;;;;;;;;5064406;28;20237;-81
2022/06/09 14:13:07;;;;;;;0.65;0.65;;;;;;;;;;5060270;28;20202;-82
2022/06/09 14:15:35;;;;;;;0.50;0.50;;;;;;;;;;5059909;28;20245;-84
2022/06/09 14:18:03;;;;;;;0.63;0.63;;;;;;;;;;5062372;28;20206;-84
2022/06/09 14:20:32;;;;;;;0.65;0.57;;;;;;;;;;5061665;28;20345;-83
2022/06/09 14:22:59;;;;;;;0.82;0.82;;;;;;;;;;5061217;28;20236;-83
2022/06/09 14:25:30;;;;;;;0.68;0.68;;;;;;;;;;5059596;28;20871;-82
2022/06/09 14:27:58;;;;;;;0.43;0.43;;;;;;;;;;5081827;28;20570;-81
2022/06/09 14:30:25;;;;;;;1.38;0.65;;;;;;;;;;5047980;28;20230;-83
2022/06/09 14:32:54;;;;;;;1.38;0.82;;;;;;;;;;5042800;28;20206;-82
2022/06/09 14:35:21;;;;;;;0.93;0.93;;;;;;;;;;5053323;28;20233;-81
2022/06/09 14:37:50;;;;;;;0.73;0.70;;;;;;;;;;5065365;28;20214;-82
2022/06/09 14:40:21;;;;;;;0.95;0.88;;;;;;;;;;5063569;28;20222;-82
2022/06/09 14:42:49;;;;;;;0.73;0.73;;;;;;;;;;5058902;28;20213;-82
2022/06/09 14:45:16;;;;;;;0.82;0.82;;;;;;;;;;5058653;28;20244;-82
2022/06/09 14:47:44;;;;;;;1.63;0.80;;;;;;;;;;5057088;28;20228;-83
2022/06/09 14:50:12;;;;;;;1.30;1.00;;;;;;;;;;5056690;28;20230;-81
2022/06/09 14:52:39;;;;;;;0.80;0.80;;;;;;;;;;5056837;28;20205;-81
2022/06/09 14:55:09;;;;;;;1.13;1.00;;;;;;;;;;5055119;28;20234;-84
2022/06/09 14:57:36;;;;;;;0.90;0.90;;;;;;;;;;5048749;28;20267;-83
2022/06/09 15:00:05;;;;;;;1.67;0.88;;;;;;;;;;5050523;28;20291;-83
2022/06/09 15:02:32;;;;;;;0.70;0.70;;;;;;;;;;5051578;28;20301;-84
2022/06/09 15:04:59;;;;;;;1.10;0.80;;;;;;;;;;5050585;28;20971;-84
2022/06/09 15:07:26;;;;;;;0.93;0.57;;;;;;;;;;5050645;28;20602;-83
2022/06/09 15:09:53;;;;;;;3.10;1.05;;;;;;;;;;5032170;28;20230;-85
2022/06/09 15:12:20;;;;;;;1.40;1.00;;;;;;;;;;5031560;28;20227;-82
2022/06/09 15:14:47;;;;;;;1.73;1.00;;;;;;;;;;5029954;28;20238;-84
2022/06/09 15:17:17;;;;;;;0.70;0.70;;;;;;;;;;5054349;28;20296;-81
2022/06/09 15:19:44;;;;;;;0.90;0.90;;;;;;;;;;5050593;28;20237;-80
2022/06/09 15:22:11;;;;;;;0.93;0.88;;;;;;;;;;5057806;28;20210;-81
2022/06/09 15:24:39;;;;;;;0.60;0.60;;;;;;;;;;5057852;28;20636;-80